UKV5035 LIRA-OLBA
Flight info
| Callsign | UKV5035 |
|---|---|
| Flight time | N/A |
| Altitude | 39000 |
| Route | RATIR7ZXSIPRO6U/15 SIPRO DCT NOSTO DCT KRK DCT XORKI DCT MKN DCT USINI UL995 RDS UM601 LAKAD DCT LUBES DCT KUKLA |
| Aircraft | A388/J-SADE2E3FGHIJ3J4J5M1RWXY/LB1D1 |
Departure
| Time | 2026-05-08 17:15 |
|---|---|
| Airport | Ciampino–G. B. Pastine International Airport (LIRA) |
Arrival
| Time | N/A |
|---|---|
| Airport | Beirut Rafic Hariri International Airport (OLBA) |
| Time | Latitude | Longitude | Altitude | Speed | Heading |
|---|---|---|---|---|---|
| 2026-05-08 16:35 | 41.79050 | 12.59785 | 411 ft | 0 kts | 21° |
| 2026-05-08 17:05 | 41.79032 | 12.59776 | 409 ft | 4 kts | 19° |
| 2026-05-08 17:06 | 41.79006 | 12.59764 | 402 ft | 4 kts | 20° |
| 2026-05-08 17:06 | 41.78984 | 12.59748 | 402 ft | 4 kts | 57° |
| 2026-05-08 17:06 | 41.78980 | 12.59739 | 403 ft | 3 kts | 75° |
| 2026-05-08 17:09 | 41.78980 | 12.59740 | 403 ft | 1 kts | 75° |
| 2026-05-08 17:10 | 41.78990 | 12.59789 | 403 ft | 10 kts | 74° |
| 2026-05-08 17:10 | 41.79022 | 12.59878 | 403 ft | 10 kts | 35° |
| 2026-05-08 17:10 | 41.79066 | 12.59875 | 408 ft | 8 kts | 333° |
| 2026-05-08 17:10 | 41.79111 | 12.59845 | 407 ft | 4 kts | 333° |
| 2026-05-08 17:11 | 41.79153 | 12.59817 | 407 ft | 10 kts | 334° |
| 2026-05-08 17:11 | 41.79288 | 12.59730 | 410 ft | 28 kts | 331° |
| 2026-05-08 17:11 | 41.79453 | 12.59614 | 403 ft | 27 kts | 333° |
| 2026-05-08 17:11 | 41.79616 | 12.59500 | 407 ft | 26 kts | 332° |
| 2026-05-08 17:12 | 41.79776 | 12.59389 | 407 ft | 26 kts | 333° |
| 2026-05-08 17:12 | 41.79935 | 12.59286 | 409 ft | 25 kts | 334° |
| 2026-05-08 17:12 | 41.80088 | 12.59178 | 407 ft | 25 kts | 332° |
| 2026-05-08 17:12 | 41.80241 | 12.59072 | 407 ft | 25 kts | 332° |
| 2026-05-08 17:13 | 41.80391 | 12.58967 | 404 ft | 24 kts | 332° |
| 2026-05-08 17:13 | 41.80542 | 12.58862 | 407 ft | 24 kts | 333° |
| 2026-05-08 17:13 | 41.80642 | 12.58794 | 404 ft | 11 kts | 332° |
| 2026-05-08 17:13 | 41.80716 | 12.58765 | 412 ft | 11 kts | 19° |
| 2026-05-08 17:14 | 41.80748 | 12.58815 | 416 ft | 5 kts | 64° |
| 2026-05-08 17:14 | 41.80758 | 12.58847 | 415 ft | 3 kts | 84° |
| 2026-05-08 17:14 | 41.80692 | 12.58960 | 420 ft | 48 kts | 150° |
| 2026-05-08 17:14 | 41.80093 | 12.59375 | 414 ft | 137 kts | 154° |
| 2026-05-08 17:15 | 41.79110 | 12.60023 | 582 ft | 168 kts | 155° |
| 2026-05-08 17:15 | 41.78006 | 12.60539 | 1162 ft | 180 kts | 172° |
| 2026-05-08 17:15 | 41.76721 | 12.60257 | 1627 ft | 194 kts | 199° |
| 2026-05-08 17:15 | 41.75489 | 12.59373 | 1781 ft | 212 kts | 218° |
| 2026-05-08 17:16 | 41.74481 | 12.57839 | 2273 ft | 226 kts | 239° |
| 2026-05-08 17:16 | 41.73753 | 12.55967 | 3212 ft | 228 kts | 248° |
| 2026-05-08 17:16 | 41.73174 | 12.53983 | 4215 ft | 228 kts | 251° |
| 2026-05-08 17:16 | 41.72657 | 12.51971 | 5198 ft | 229 kts | 252° |
| 2026-05-08 17:17 | 41.72114 | 12.49956 | 6161 ft | 231 kts | 244° |
| 2026-05-08 17:17 | 41.71179 | 12.48242 | 7062 ft | 233 kts | 223° |
| 2026-05-08 17:17 | 41.69904 | 12.46841 | 7781 ft | 247 kts | 220° |
| 2026-05-08 17:17 | 41.68520 | 12.45316 | 8287 ft | 267 kts | 220° |
| 2026-05-08 17:18 | 41.67026 | 12.43781 | 9075 ft | 274 kts | 209° |
| 2026-05-08 17:18 | 41.65197 | 12.43084 | 10006 ft | 277 kts | 182° |
| 2026-05-08 17:18 | 41.63289 | 12.43540 | 10802 ft | 284 kts | 156° |
| 2026-05-08 17:18 | 41.61684 | 12.45089 | 11580 ft | 290 kts | 131° |
| 2026-05-08 17:19 | 41.60702 | 12.47442 | 12346 ft | 296 kts | 106° |
| 2026-05-08 17:19 | 41.60522 | 12.48626 | 12664 ft | 298 kts | 95° |
| 2026-05-08 17:19 | 41.60497 | 12.49536 | 12912 ft | 300 kts | 86° |
| 2026-05-08 17:19 | 41.61028 | 12.52309 | 13671 ft | 303 kts | 61° |
| 2026-05-08 17:20 | 41.62144 | 12.54283 | 14249 ft | 305 kts | 41° |
| 2026-05-08 17:20 | 41.63582 | 12.55911 | 14804 ft | 308 kts | 36° |
| 2026-05-08 17:20 | 41.65243 | 12.57782 | 15425 ft | 314 kts | 39° |
| 2026-05-08 17:20 | 41.66825 | 12.59839 | 16073 ft | 320 kts | 44° |
| 2026-05-08 17:21 | 41.68303 | 12.62049 | 16656 ft | 327 kts | 51° |
| 2026-05-08 17:21 | 41.69358 | 12.64779 | 17240 ft | 336 kts | 71° |
| 2026-05-08 17:21 | 41.69744 | 12.67884 | 17801 ft | 343 kts | 85° |
| 2026-05-08 17:21 | 41.69942 | 12.71153 | 17998 ft | 361 kts | 84° |
| 2026-05-08 17:22 | 41.70174 | 12.74571 | 18209 ft | 377 kts | 84° |
| 2026-05-08 17:22 | 41.70428 | 12.78145 | 18362 ft | 394 kts | 84° |
| 2026-05-08 17:22 | 41.70616 | 12.81875 | 18512 ft | 409 kts | 90° |
| 2026-05-08 17:22 | 41.70409 | 12.85706 | 18902 ft | 415 kts | 99° |
| 2026-05-08 17:23 | 41.69874 | 12.89531 | 19360 ft | 420 kts | 102° |
| 2026-05-08 17:23 | 41.69323 | 12.93393 | 19842 ft | 424 kts | 101° |
| 2026-05-08 17:23 | 41.68784 | 12.97248 | 20263 ft | 430 kts | 101° |
| 2026-05-08 17:23 | 41.68234 | 13.01190 | 20690 ft | 434 kts | 101° |
| 2026-05-08 17:24 | 41.67674 | 13.05183 | 21152 ft | 438 kts | 101° |
| 2026-05-08 17:24 | 41.67107 | 13.09204 | 21595 ft | 443 kts | 101° |
| 2026-05-08 17:24 | 41.66530 | 13.13277 | 22026 ft | 447 kts | 101° |
| 2026-05-08 17:24 | 41.65947 | 13.17374 | 22499 ft | 450 kts | 101° |
| 2026-05-08 17:25 | 41.65358 | 13.21507 | 22929 ft | 455 kts | 101° |
| 2026-05-08 17:25 | 41.64718 | 13.25675 | 23333 ft | 459 kts | 106° |
| 2026-05-08 17:25 | 41.63658 | 13.29724 | 23752 ft | 461 kts | 116° |
| 2026-05-08 17:25 | 41.62135 | 13.33492 | 24104 ft | 462 kts | 126° |
| 2026-05-08 17:26 | 41.60342 | 13.37002 | 24436 ft | 465 kts | 127° |
| 2026-05-08 17:26 | 41.58493 | 13.40639 | 24886 ft | 467 kts | 127° |
| 2026-05-08 17:26 | 41.56689 | 13.44207 | 25287 ft | 470 kts | 127° |
| 2026-05-08 17:26 | 41.54850 | 13.47847 | 25706 ft | 474 kts | 127° |
| 2026-05-08 17:27 | 41.53000 | 13.51503 | 26120 ft | 477 kts | 127° |
| 2026-05-08 17:27 | 41.51126 | 13.55203 | 26567 ft | 481 kts | 127° |
| 2026-05-08 17:27 | 41.49242 | 13.58913 | 27014 ft | 485 kts | 127° |
| 2026-05-08 17:27 | 41.47344 | 13.62649 | 27507 ft | 488 kts | 127° |
| 2026-05-08 17:28 | 41.45489 | 13.66393 | 27944 ft | 493 kts | 123° |
| 2026-05-08 17:28 | 41.43922 | 13.70486 | 28425 ft | 499 kts | 115° |
| 2026-05-08 17:28 | 41.42694 | 13.74842 | 28896 ft | 504 kts | 111° |
| 2026-05-08 17:28 | 41.41483 | 13.79257 | 29359 ft | 508 kts | 111° |
| 2026-05-08 17:29 | 41.40251 | 13.83701 | 29829 ft | 512 kts | 111° |
| 2026-05-08 17:29 | 41.39008 | 13.88170 | 30236 ft | 516 kts | 111° |
| 2026-05-08 17:29 | 41.37755 | 13.92671 | 30686 ft | 519 kts | 111° |
| 2026-05-08 17:29 | 41.36493 | 13.97198 | 31130 ft | 523 kts | 111° |
| 2026-05-08 17:30 | 41.35225 | 14.01747 | 31565 ft | 526 kts | 111° |
| 2026-05-08 17:30 | 41.33944 | 14.06324 | 31985 ft | 529 kts | 112° |
| 2026-05-08 17:30 | 41.32654 | 14.10923 | 32404 ft | 532 kts | 112° |
| 2026-05-08 17:30 | 41.31355 | 14.15544 | 32827 ft | 535 kts | 112° |
| 2026-05-08 17:31 | 41.30045 | 14.20192 | 33214 ft | 538 kts | 112° |
| 2026-05-08 17:31 | 41.28737 | 14.24822 | 33580 ft | 543 kts | 112° |
| 2026-05-08 17:31 | 41.27402 | 14.29542 | 33983 ft | 546 kts | 112° |
| 2026-05-08 17:31 | 41.26060 | 14.34279 | 34352 ft | 549 kts | 112° |
| 2026-05-08 17:32 | 41.24712 | 14.39028 | 34809 ft | 549 kts | 112° |
| 2026-05-08 17:32 | 41.23363 | 14.43775 | 35352 ft | 548 kts | 112° |
| 2026-05-08 17:32 | 41.22469 | 14.46915 | 35718 ft | 547 kts | 112° |
| 2026-05-08 17:32 | 41.21125 | 14.51629 | 36282 ft | 545 kts | 112° |
| 2026-05-08 17:33 | 41.19778 | 14.56343 | 36833 ft | 543 kts | 112° |
| 2026-05-08 17:33 | 41.18434 | 14.61037 | 37381 ft | 542 kts | 112° |
| 2026-05-08 17:33 | 41.17094 | 14.65706 | 37862 ft | 540 kts | 112° |
| 2026-05-08 17:33 | 41.15753 | 14.70373 | 38415 ft | 538 kts | 112° |
| 2026-05-08 17:34 | 41.14418 | 14.75012 | 38878 ft | 537 kts | 112° |
| 2026-05-08 17:34 | 41.13094 | 14.79602 | 39017 ft | 543 kts | 112° |
| 2026-05-08 17:34 | 41.10408 | 14.88892 | 39023 ft | 538 kts | 112° |
| 2026-05-08 17:35 | 41.07710 | 14.98188 | 39025 ft | 540 kts | 112° |
| 2026-05-08 17:35 | 41.05002 | 15.07485 | 39033 ft | 540 kts | 112° |
| 2026-05-08 17:36 | 41.02282 | 15.16793 | 39031 ft | 540 kts | 113° |
| 2026-05-08 17:36 | 40.99579 | 15.26006 | 39037 ft | 540 kts | 113° |
| 2026-05-08 17:37 | 40.96848 | 15.35283 | 39029 ft | 540 kts | 113° |
| 2026-05-08 17:37 | 40.94113 | 15.44541 | 39002 ft | 541 kts | 113° |
| 2026-05-08 17:38 | 40.91362 | 15.53822 | 39034 ft | 541 kts | 113° |
| 2026-05-08 17:38 | 40.88617 | 15.63049 | 39038 ft | 542 kts | 113° |
| 2026-05-08 17:39 | 40.85842 | 15.72342 | 39015 ft | 544 kts | 113° |
| 2026-05-08 17:39 | 40.83050 | 15.81661 | 39026 ft | 545 kts | 113° |
| 2026-05-08 17:40 | 40.80269 | 15.90914 | 39028 ft | 545 kts | 113° |
| 2026-05-08 17:40 | 40.77459 | 16.00226 | 39019 ft | 546 kts | 113° |
| 2026-05-08 17:41 | 40.74638 | 16.09541 | 39014 ft | 547 kts | 113° |
| 2026-05-08 17:41 | 40.71809 | 16.18853 | 39016 ft | 547 kts | 114° |
| 2026-05-08 17:42 | 40.68974 | 16.28152 | 39008 ft | 546 kts | 114° |
| 2026-05-08 17:42 | 40.66149 | 16.37387 | 39011 ft | 546 kts | 114° |
| 2026-05-08 17:43 | 40.63298 | 16.46671 | 39026 ft | 546 kts | 114° |
| 2026-05-08 17:43 | 40.60441 | 16.55944 | 39040 ft | 546 kts | 114° |
| 2026-05-08 17:44 | 40.57577 | 16.65210 | 39046 ft | 546 kts | 114° |
| 2026-05-08 17:44 | 40.54709 | 16.74454 | 39044 ft | 546 kts | 114° |
| 2026-05-08 17:45 | 40.51850 | 16.83638 | 39030 ft | 546 kts | 114° |
| 2026-05-08 17:45 | 40.48961 | 16.92888 | 38972 ft | 547 kts | 114° |
| 2026-05-08 17:46 | 40.46063 | 17.02133 | 38965 ft | 548 kts | 114° |
| 2026-05-08 17:46 | 40.43146 | 17.11409 | 38954 ft | 548 kts | 114° |
| 2026-05-08 17:47 | 40.40224 | 17.20670 | 38952 ft | 549 kts | 114° |
| 2026-05-08 17:47 | 40.37789 | 17.28364 | 38952 ft | 549 kts | 114° |
| 2026-05-08 17:48 | 40.34372 | 17.39121 | 38956 ft | 550 kts | 114° |
| 2026-05-08 17:48 | 40.31421 | 17.48380 | 38959 ft | 549 kts | 114° |
| 2026-05-08 17:49 | 40.28473 | 17.57597 | 38966 ft | 549 kts | 114° |
| 2026-05-08 17:49 | 40.25533 | 17.66760 | 38973 ft | 549 kts | 114° |
| 2026-05-08 17:50 | 40.22563 | 17.75985 | 38977 ft | 548 kts | 114° |
| 2026-05-08 17:50 | 40.19587 | 17.85194 | 38973 ft | 548 kts | 114° |
| 2026-05-08 17:51 | 40.16615 | 17.94367 | 38967 ft | 547 kts | 114° |
| 2026-05-08 17:51 | 40.13650 | 18.03483 | 38963 ft | 547 kts | 114° |
| 2026-05-08 17:52 | 40.10658 | 18.12654 | 38956 ft | 547 kts | 115° |
| 2026-05-08 17:53 | 40.06176 | 18.26333 | 38981 ft | 548 kts | 115° |
| 2026-05-08 17:53 | 40.03167 | 18.35480 | 38994 ft | 549 kts | 115° |
| 2026-05-08 17:54 | 40.00145 | 18.44636 | 39004 ft | 549 kts | 115° |
| 2026-05-08 17:54 | 39.97120 | 18.53770 | 39002 ft | 548 kts | 115° |
| 2026-05-08 17:55 | 39.94089 | 18.62898 | 39000 ft | 548 kts | 115° |
| 2026-05-08 17:55 | 39.91069 | 18.71961 | 39000 ft | 548 kts | 115° |
| 2026-05-08 17:56 | 39.88027 | 18.81061 | 38998 ft | 547 kts | 115° |
| 2026-05-08 17:56 | 39.84980 | 18.90161 | 38998 ft | 547 kts | 115° |
| 2026-05-08 17:57 | 39.81948 | 18.99191 | 39004 ft | 547 kts | 116° |
| 2026-05-08 17:57 | 39.78787 | 19.08209 | 39004 ft | 547 kts | 115° |
| 2026-05-08 17:58 | 39.75733 | 19.17265 | 38991 ft | 548 kts | 115° |
| 2026-05-08 17:58 | 39.72637 | 19.26336 | 38992 ft | 549 kts | 115° |
| 2026-05-08 17:59 | 39.69515 | 19.35398 | 39002 ft | 549 kts | 116° |
| 2026-05-08 17:59 | 39.66382 | 19.44455 | 38993 ft | 549 kts | 116° |
| 2026-05-08 18:00 | 39.63259 | 19.53459 | 38982 ft | 550 kts | 116° |
| 2026-05-08 18:00 | 39.58529 | 19.67037 | 38980 ft | 551 kts | 116° |
| 2026-05-08 18:01 | 39.55362 | 19.76094 | 38996 ft | 551 kts | 116° |
| 2026-05-08 18:01 | 39.52191 | 19.85134 | 38997 ft | 551 kts | 116° |
| 2026-05-08 18:02 | 39.49546 | 19.92655 | 38997 ft | 551 kts | 116° |
| 2026-05-08 18:02 | 39.45821 | 20.03209 | 38997 ft | 551 kts | 116° |
| 2026-05-08 18:03 | 39.42657 | 20.12168 | 39002 ft | 551 kts | 116° |
| 2026-05-08 18:03 | 39.39494 | 20.21185 | 39017 ft | 550 kts | 116° |
| 2026-05-08 18:04 | 39.36328 | 20.30205 | 39018 ft | 550 kts | 116° |
| 2026-05-08 18:04 | 39.33156 | 20.39203 | 39038 ft | 550 kts | 116° |
| 2026-05-08 18:05 | 39.29987 | 20.48150 | 39048 ft | 550 kts | 116° |
| 2026-05-08 18:05 | 39.26796 | 20.57140 | 39019 ft | 549 kts | 116° |
| 2026-05-08 18:06 | 39.23613 | 20.66075 | 39039 ft | 550 kts | 116° |
| 2026-05-08 18:06 | 39.20392 | 20.75082 | 39065 ft | 552 kts | 116° |
| 2026-05-08 18:07 | 39.17169 | 20.84077 | 39064 ft | 553 kts | 116° |
| 2026-05-08 18:07 | 39.13957 | 20.93010 | 39069 ft | 552 kts | 116° |
| 2026-05-08 18:08 | 39.10718 | 21.01991 | 39071 ft | 552 kts | 116° |
| 2026-05-08 18:08 | 39.07478 | 21.10949 | 39075 ft | 552 kts | 116° |
| 2026-05-08 18:09 | 39.04249 | 21.19847 | 39096 ft | 551 kts | 116° |
| 2026-05-08 18:09 | 39.00994 | 21.28790 | 39099 ft | 551 kts | 116° |
| 2026-05-08 18:10 | 38.97737 | 21.37713 | 39094 ft | 550 kts | 116° |
| 2026-05-08 18:10 | 38.94476 | 21.46620 | 39100 ft | 550 kts | 116° |
| 2026-05-08 18:11 | 38.91232 | 21.55455 | 39099 ft | 550 kts | 116° |
| 2026-05-08 18:11 | 38.87956 | 21.64348 | 39103 ft | 551 kts | 116° |
| 2026-05-08 18:12 | 38.84676 | 21.73227 | 39103 ft | 550 kts | 116° |
| 2026-05-08 18:12 | 38.81391 | 21.82096 | 39085 ft | 549 kts | 117° |
| 2026-05-08 18:13 | 38.78106 | 21.90938 | 39093 ft | 548 kts | 117° |
| 2026-05-08 18:13 | 38.74831 | 21.99724 | 39108 ft | 549 kts | 117° |
| 2026-05-08 18:14 | 38.71535 | 22.08541 | 39094 ft | 549 kts | 117° |
| 2026-05-08 18:14 | 38.68227 | 22.17363 | 39107 ft | 547 kts | 117° |
| 2026-05-08 18:15 | 38.64923 | 22.26151 | 39076 ft | 547 kts | 117° |
| 2026-05-08 18:15 | 38.61612 | 22.34931 | 39058 ft | 548 kts | 117° |
| 2026-05-08 18:16 | 38.58310 | 22.43664 | 39067 ft | 547 kts | 117° |
| 2026-05-08 18:16 | 38.54987 | 22.52426 | 39080 ft | 547 kts | 118° |
| 2026-05-08 18:17 | 38.51668 | 22.61150 | 39065 ft | 547 kts | 118° |
| 2026-05-08 18:17 | 38.48337 | 22.69885 | 39076 ft | 545 kts | 118° |
| 2026-05-08 18:18 | 38.45133 | 22.78270 | 39033 ft | 545 kts | 118° |
| 2026-05-08 18:18 | 38.42443 | 22.85276 | 39042 ft | 545 kts | 118° |
| 2026-05-08 18:19 | 38.40612 | 22.90038 | 39043 ft | 546 kts | 118° |
| 2026-05-08 18:19 | 38.37322 | 22.98580 | 39054 ft | 547 kts | 118° |
| 2026-05-08 18:20 | 38.34526 | 23.05820 | 39057 ft | 548 kts | 118° |
| 2026-05-08 18:20 | 38.31171 | 23.14489 | 39049 ft | 549 kts | 119° |
| 2026-05-08 18:21 | 38.27784 | 23.23216 | 39055 ft | 549 kts | 119° |
| 2026-05-08 18:21 | 38.24403 | 23.31901 | 39067 ft | 550 kts | 119° |
| 2026-05-08 18:22 | 38.20980 | 23.40670 | 39075 ft | 550 kts | 119° |
| 2026-05-08 18:22 | 38.17662 | 23.49160 | 39050 ft | 550 kts | 119° |
| 2026-05-08 18:23 | 38.14263 | 23.57887 | 39048 ft | 551 kts | 118° |
| 2026-05-08 18:23 | 38.10880 | 23.66639 | 39050 ft | 550 kts | 118° |
| 2026-05-08 18:24 | 38.07500 | 23.75356 | 39048 ft | 550 kts | 119° |
| 2026-05-08 18:24 | 38.04111 | 23.84067 | 39062 ft | 549 kts | 120° |
| 2026-05-08 18:25 | 38.00750 | 23.92682 | 39062 ft | 549 kts | 118° |
| 2026-05-08 18:25 | 37.97418 | 24.01391 | 39069 ft | 548 kts | 119° |
| 2026-05-08 18:26 | 37.94017 | 24.10049 | 39075 ft | 547 kts | 120° |
| 2026-05-08 18:26 | 37.90613 | 24.18613 | 39071 ft | 547 kts | 120° |
| 2026-05-08 18:27 | 37.87740 | 24.25812 | 39070 ft | 546 kts | 120° |
| 2026-05-08 18:27 | 37.83755 | 24.35779 | 39071 ft | 545 kts | 120° |
| 2026-05-08 18:28 | 37.80378 | 24.44202 | 39083 ft | 545 kts | 120° |
| 2026-05-08 18:28 | 37.76965 | 24.52692 | 39082 ft | 544 kts | 120° |
| 2026-05-08 18:29 | 37.73518 | 24.61240 | 39082 ft | 544 kts | 120° |
| 2026-05-08 18:29 | 37.70076 | 24.69757 | 39078 ft | 544 kts | 120° |
| 2026-05-08 18:30 | 37.66620 | 24.78281 | 39090 ft | 544 kts | 120° |
| 2026-05-08 18:30 | 37.63165 | 24.86783 | 39094 ft | 544 kts | 120° |
| 2026-05-08 18:31 | 37.59723 | 24.95229 | 39098 ft | 544 kts | 120° |
| 2026-05-08 18:31 | 37.56252 | 25.03723 | 39108 ft | 544 kts | 120° |
| 2026-05-08 18:32 | 37.52779 | 25.12200 | 39105 ft | 544 kts | 120° |
| 2026-05-08 18:32 | 37.49305 | 25.20656 | 39085 ft | 544 kts | 120° |
| 2026-05-08 18:33 | 37.45824 | 25.29106 | 39077 ft | 543 kts | 121° |
| 2026-05-08 18:33 | 37.42334 | 25.37557 | 39068 ft | 543 kts | 121° |
| 2026-05-08 18:34 | 37.38870 | 25.45921 | 39077 ft | 542 kts | 120° |
| 2026-05-08 18:34 | 37.35377 | 25.54335 | 39080 ft | 542 kts | 121° |
| 2026-05-08 18:35 | 37.31884 | 25.62724 | 39078 ft | 542 kts | 121° |
| 2026-05-08 18:35 | 37.28391 | 25.71094 | 39096 ft | 540 kts | 120° |
| 2026-05-08 18:36 | 37.24893 | 25.79453 | 39099 ft | 540 kts | 121° |
| 2026-05-08 18:36 | 37.21416 | 25.87741 | 39095 ft | 539 kts | 121° |
| 2026-05-08 18:37 | 37.17919 | 25.96054 | 39090 ft | 539 kts | 121° |
| 2026-05-08 18:37 | 37.14415 | 26.04364 | 39107 ft | 538 kts | 121° |
| 2026-05-08 18:38 | 37.10909 | 26.12656 | 39106 ft | 537 kts | 121° |
| 2026-05-08 18:38 | 37.07401 | 26.20929 | 39108 ft | 537 kts | 121° |
| 2026-05-08 18:39 | 37.03889 | 26.29193 | 39105 ft | 537 kts | 121° |
| 2026-05-08 18:39 | 37.00394 | 26.37396 | 39105 ft | 537 kts | 121° |
| 2026-05-08 18:40 | 36.96869 | 26.45648 | 39106 ft | 536 kts | 121° |
| 2026-05-08 18:40 | 36.93346 | 26.53876 | 39107 ft | 536 kts | 121° |
| 2026-05-08 18:41 | 36.89852 | 26.62012 | 39103 ft | 536 kts | 121° |
| 2026-05-08 18:41 | 36.86419 | 26.69988 | 39105 ft | 536 kts | 121° |
| 2026-05-08 18:42 | 36.82879 | 26.78193 | 39097 ft | 536 kts | 121° |
| 2026-05-08 18:42 | 36.79646 | 26.85668 | 39090 ft | 537 kts | 121° |
| 2026-05-08 18:43 | 36.76093 | 26.93863 | 39083 ft | 537 kts | 121° |
| 2026-05-08 18:43 | 36.72535 | 27.02051 | 39084 ft | 537 kts | 121° |
| 2026-05-08 18:44 | 36.68990 | 27.10197 | 39080 ft | 537 kts | 121° |
| 2026-05-08 18:44 | 36.65739 | 27.18584 | 39080 ft | 538 kts | 115° |
| 2026-05-08 18:45 | 36.62781 | 27.27141 | 39117 ft | 537 kts | 115° |
| 2026-05-08 18:45 | 36.59821 | 27.35616 | 39121 ft | 536 kts | 115° |
| 2026-05-08 18:46 | 36.56823 | 27.44132 | 39115 ft | 536 kts | 116° |
| 2026-05-08 18:46 | 36.53823 | 27.52623 | 39114 ft | 535 kts | 116° |
| 2026-05-08 18:47 | 36.50818 | 27.61107 | 39100 ft | 535 kts | 116° |
| 2026-05-08 18:47 | 36.47835 | 27.69504 | 39098 ft | 534 kts | 116° |
| 2026-05-08 18:48 | 36.44830 | 27.77943 | 39095 ft | 534 kts | 116° |
| 2026-05-08 18:48 | 36.41817 | 27.86376 | 39093 ft | 534 kts | 116° |
| 2026-05-08 18:49 | 36.38800 | 27.94801 | 39102 ft | 533 kts | 116° |
| 2026-05-08 18:49 | 36.35779 | 28.03212 | 39103 ft | 533 kts | 116° |
| 2026-05-08 18:50 | 36.33063 | 28.11710 | 39103 ft | 534 kts | 109° |
| 2026-05-08 18:50 | 36.30847 | 28.20516 | 39078 ft | 534 kts | 109° |
| 2026-05-08 18:51 | 36.28602 | 28.29295 | 39079 ft | 534 kts | 109° |
| 2026-05-08 18:51 | 36.26344 | 28.38080 | 39076 ft | 534 kts | 109° |
| 2026-05-08 18:52 | 36.24085 | 28.46850 | 39081 ft | 534 kts | 109° |
| 2026-05-08 18:52 | 36.21745 | 28.55522 | 39091 ft | 534 kts | 111° |
| 2026-05-08 18:53 | 36.19194 | 28.64189 | 39095 ft | 535 kts | 112° |
| 2026-05-08 18:53 | 36.16667 | 28.72866 | 39097 ft | 536 kts | 111° |
| 2026-05-08 18:54 | 36.14144 | 28.81577 | 39107 ft | 537 kts | 111° |
| 2026-05-08 18:54 | 36.11613 | 28.90294 | 39120 ft | 538 kts | 111° |
| 2026-05-08 18:55 | 36.07816 | 29.03306 | 39113 ft | 539 kts | 111° |
| 2026-05-08 18:56 | 36.05262 | 29.12026 | 39104 ft | 540 kts | 112° |
| 2026-05-08 18:56 | 36.02692 | 29.20771 | 39112 ft | 541 kts | 112° |
| 2026-05-08 18:57 | 36.00113 | 29.29520 | 39106 ft | 542 kts | 112° |
| 2026-05-08 18:57 | 35.97522 | 29.38285 | 39121 ft | 543 kts | 112° |
| 2026-05-08 18:58 | 35.94921 | 29.47052 | 39127 ft | 544 kts | 112° |
| 2026-05-08 18:58 | 35.92312 | 29.55821 | 39118 ft | 544 kts | 112° |
| 2026-05-08 18:59 | 35.89693 | 29.64595 | 39119 ft | 545 kts | 112° |
| 2026-05-08 18:59 | 35.87079 | 29.73328 | 39121 ft | 545 kts | 112° |
| 2026-05-08 19:00 | 35.84886 | 29.80632 | 39121 ft | 545 kts | 112° |
| 2026-05-08 19:00 | 35.81816 | 29.90826 | 39113 ft | 546 kts | 112° |
| 2026-05-08 19:01 | 35.79168 | 29.99590 | 39114 ft | 546 kts | 112° |
| 2026-05-08 19:01 | 35.76504 | 30.08380 | 39114 ft | 546 kts | 112° |
| 2026-05-08 19:02 | 35.73843 | 30.17133 | 39117 ft | 546 kts | 112° |
| 2026-05-08 19:02 | 35.71174 | 30.25887 | 39116 ft | 546 kts | 112° |
| 2026-05-08 19:03 | 35.68495 | 30.34639 | 39116 ft | 545 kts | 112° |
| 2026-05-08 19:03 | 35.65832 | 30.43312 | 39126 ft | 544 kts | 112° |
| 2026-05-08 19:04 | 35.63152 | 30.52031 | 39121 ft | 544 kts | 112° |
| 2026-05-08 19:04 | 35.60918 | 30.59274 | 39122 ft | 544 kts | 112° |
| 2026-05-08 19:05 | 35.57789 | 30.69385 | 39120 ft | 544 kts | 112° |
| 2026-05-08 19:05 | 35.55547 | 30.76606 | 39124 ft | 544 kts | 112° |
| 2026-05-08 19:06 | 35.52846 | 30.85283 | 39121 ft | 543 kts | 112° |
| 2026-05-08 19:06 | 35.50139 | 30.93956 | 39122 ft | 543 kts | 112° |
| 2026-05-08 19:07 | 35.47423 | 31.02628 | 39121 ft | 543 kts | 112° |
| 2026-05-08 19:07 | 35.44706 | 31.11279 | 39125 ft | 544 kts | 112° |
| 2026-05-08 19:08 | 35.41975 | 31.19950 | 39128 ft | 544 kts | 112° |
| 2026-05-08 19:08 | 35.39250 | 31.28576 | 39117 ft | 545 kts | 112° |
| 2026-05-08 19:09 | 35.36500 | 31.37258 | 39129 ft | 546 kts | 112° |
| 2026-05-08 19:09 | 35.33742 | 31.45939 | 39136 ft | 547 kts | 112° |
| 2026-05-08 19:10 | 35.30991 | 31.54571 | 39141 ft | 547 kts | 112° |
| 2026-05-08 19:10 | 35.28211 | 31.63269 | 39142 ft | 548 kts | 112° |
| 2026-05-08 19:11 | 35.25440 | 31.71912 | 39143 ft | 548 kts | 112° |
| 2026-05-08 19:11 | 35.22650 | 31.80591 | 39140 ft | 548 kts | 112° |
| 2026-05-08 19:12 | 35.19846 | 31.89286 | 39138 ft | 548 kts | 112° |
| 2026-05-08 19:12 | 35.17061 | 31.97902 | 39137 ft | 548 kts | 112° |
| 2026-05-08 19:13 | 35.14250 | 32.06569 | 39138 ft | 547 kts | 112° |
| 2026-05-08 19:13 | 35.11439 | 32.15211 | 39142 ft | 547 kts | 111° |
| 2026-05-08 19:14 | 35.08623 | 32.23845 | 39137 ft | 546 kts | 111° |
| 2026-05-08 19:14 | 35.05825 | 32.32403 | 39134 ft | 546 kts | 112° |
| 2026-05-08 19:15 | 35.03001 | 32.41007 | 39138 ft | 546 kts | 111° |
| 2026-05-08 19:15 | 35.00176 | 32.49599 | 39133 ft | 545 kts | 111° |
| 2026-05-08 19:16 | 34.97345 | 32.58182 | 39129 ft | 545 kts | 111° |
| 2026-05-08 19:16 | 34.94506 | 32.66775 | 39136 ft | 544 kts | 111° |
| 2026-05-08 19:17 | 34.91676 | 32.75328 | 39130 ft | 544 kts | 111° |
| 2026-05-08 19:17 | 34.88882 | 32.83828 | 39126 ft | 543 kts | 111° |
| 2026-05-08 19:18 | 34.86082 | 32.92374 | 39135 ft | 542 kts | 111° |
| 2026-05-08 19:18 | 34.83278 | 33.00902 | 39119 ft | 542 kts | 111° |
| 2026-05-08 19:19 | 34.80468 | 33.09421 | 39113 ft | 541 kts | 111° |
| 2026-05-08 19:19 | 34.77661 | 33.17906 | 39099 ft | 540 kts | 111° |
| 2026-05-08 19:20 | 34.74861 | 33.26345 | 39091 ft | 540 kts | 111° |
| 2026-05-08 19:20 | 34.72042 | 33.34818 | 39086 ft | 540 kts | 111° |
| 2026-05-08 19:21 | 34.69222 | 33.43270 | 39063 ft | 539 kts | 111° |
| 2026-05-08 19:21 | 34.67811 | 33.47490 | 38470 ft | 538 kts | 111° |
| 2026-05-08 19:21 | 34.66417 | 33.51656 | 37322 ft | 541 kts | 111° |
| 2026-05-08 19:21 | 34.64988 | 33.55920 | 35816 ft | 549 kts | 111° |
| 2026-05-08 19:22 | 34.63535 | 33.60250 | 34256 ft | 558 kts | 111° |
| 2026-05-08 19:22 | 34.62065 | 33.64623 | 33125 ft | 560 kts | 111° |
| 2026-05-08 19:22 | 34.60604 | 33.68957 | 32484 ft | 552 kts | 111° |
| 2026-05-08 19:22 | 34.59155 | 33.73247 | 32071 ft | 540 kts | 111° |
| 2026-05-08 19:23 | 34.57744 | 33.77425 | 31512 ft | 532 kts | 111° |
| 2026-05-08 19:23 | 34.56348 | 33.81555 | 30880 ft | 527 kts | 111° |
| 2026-05-08 19:23 | 34.54961 | 33.85653 | 30281 ft | 521 kts | 110° |
| 2026-05-08 19:23 | 34.53592 | 33.89695 | 29619 ft | 515 kts | 110° |
| 2026-05-08 19:24 | 34.52234 | 33.93697 | 29023 ft | 508 kts | 111° |
| 2026-05-08 19:24 | 34.50899 | 33.97624 | 28425 ft | 501 kts | 110° |
| 2026-05-08 19:24 | 34.49597 | 34.01452 | 27829 ft | 495 kts | 110° |
| 2026-05-08 19:24 | 34.48275 | 34.05335 | 27227 ft | 489 kts | 110° |
| 2026-05-08 19:25 | 34.46984 | 34.09121 | 26627 ft | 483 kts | 110° |
| 2026-05-08 19:25 | 34.45722 | 34.12817 | 26040 ft | 478 kts | 111° |
| 2026-05-08 19:25 | 34.44457 | 34.16518 | 25451 ft | 473 kts | 111° |
| 2026-05-08 19:25 | 34.43204 | 34.20180 | 24856 ft | 468 kts | 111° |
| 2026-05-08 19:26 | 34.41963 | 34.23802 | 24261 ft | 464 kts | 111° |
| 2026-05-08 19:26 | 34.40729 | 34.27400 | 23664 ft | 460 kts | 111° |
| 2026-05-08 19:26 | 34.39506 | 34.30962 | 23007 ft | 455 kts | 111° |
| 2026-05-08 19:26 | 34.38301 | 34.34466 | 22423 ft | 448 kts | 111° |
| 2026-05-08 19:27 | 34.37112 | 34.37922 | 21816 ft | 442 kts | 111° |
| 2026-05-08 19:27 | 34.35933 | 34.41345 | 21245 ft | 436 kts | 112° |
| 2026-05-08 19:27 | 34.34768 | 34.44722 | 20644 ft | 431 kts | 112° |
| 2026-05-08 19:27 | 34.33618 | 34.48053 | 20050 ft | 427 kts | 112° |
| 2026-05-08 19:28 | 34.32479 | 34.51349 | 19472 ft | 422 kts | 112° |
| 2026-05-08 19:28 | 34.31352 | 34.54607 | 18879 ft | 418 kts | 113° |
| 2026-05-08 19:28 | 34.30247 | 34.57798 | 18281 ft | 414 kts | 113° |
| 2026-05-08 19:28 | 34.29135 | 34.61002 | 17668 ft | 409 kts | 113° |
| 2026-05-08 19:29 | 34.28037 | 34.64163 | 17080 ft | 404 kts | 113° |
| 2026-05-08 19:29 | 34.26952 | 34.67283 | 16500 ft | 398 kts | 113° |
| 2026-05-08 19:29 | 34.25885 | 34.70353 | 15920 ft | 393 kts | 113° |
| 2026-05-08 19:29 | 34.24831 | 34.73384 | 15356 ft | 389 kts | 113° |
| 2026-05-08 19:30 | 34.23960 | 34.76411 | 14795 ft | 384 kts | 105° |
| 2026-05-08 19:30 | 34.23269 | 34.79507 | 14231 ft | 380 kts | 105° |
| 2026-05-08 19:30 | 34.22581 | 34.82576 | 13645 ft | 376 kts | 105° |
| 2026-05-08 19:30 | 34.21895 | 34.85614 | 13073 ft | 371 kts | 105° |
| 2026-05-08 19:31 | 34.21217 | 34.88598 | 12528 ft | 366 kts | 105° |
| 2026-05-08 19:31 | 34.20547 | 34.91538 | 11995 ft | 361 kts | 106° |
| 2026-05-08 19:31 | 34.19881 | 34.94452 | 11447 ft | 356 kts | 106° |
| 2026-05-08 19:31 | 34.19224 | 34.97318 | 10924 ft | 352 kts | 106° |
| 2026-05-08 19:32 | 34.18577 | 35.00145 | 10524 ft | 344 kts | 107° |
| 2026-05-08 19:32 | 34.17963 | 35.02828 | 10390 ft | 328 kts | 107° |
| 2026-05-08 19:32 | 34.17369 | 35.05415 | 10263 ft | 313 kts | 107° |
| 2026-05-08 19:32 | 34.16795 | 35.07914 | 10146 ft | 299 kts | 107° |
| 2026-05-08 19:33 | 34.16245 | 35.10301 | 9808 ft | 295 kts | 108° |
| 2026-05-08 19:33 | 34.15689 | 35.12701 | 9306 ft | 296 kts | 107° |
| 2026-05-08 19:33 | 34.15140 | 35.15076 | 9092 ft | 292 kts | 107° |
| 2026-05-08 19:33 | 34.14594 | 35.17435 | 8783 ft | 290 kts | 107° |
| 2026-05-08 19:34 | 34.14062 | 35.19737 | 8446 ft | 286 kts | 108° |
| 2026-05-08 19:34 | 34.13531 | 35.22037 | 8094 ft | 283 kts | 107° |
| 2026-05-08 19:34 | 34.13005 | 35.24307 | 7776 ft | 279 kts | 107° |
| 2026-05-08 19:34 | 34.12485 | 35.26551 | 7435 ft | 276 kts | 107° |
| 2026-05-08 19:35 | 34.11970 | 35.28770 | 7121 ft | 273 kts | 107° |
| 2026-05-08 19:35 | 34.11459 | 35.30974 | 6783 ft | 272 kts | 107° |
| 2026-05-08 19:35 | 34.10954 | 35.33141 | 6455 ft | 270 kts | 107° |
| 2026-05-08 19:35 | 34.10447 | 35.35316 | 6104 ft | 268 kts | 107° |
| 2026-05-08 19:36 | 34.09944 | 35.37469 | 5803 ft | 265 kts | 106° |
| 2026-05-08 19:36 | 34.09445 | 35.39602 | 5473 ft | 263 kts | 105° |
| 2026-05-08 19:36 | 34.08957 | 35.41692 | 5136 ft | 261 kts | 105° |
| 2026-05-08 19:36 | 34.08463 | 35.43805 | 4656 ft | 265 kts | 104° |
| 2026-05-08 19:37 | 34.07963 | 35.45954 | 4254 ft | 267 kts | 104° |
| 2026-05-08 19:37 | 34.07459 | 35.48118 | 4023 ft | 271 kts | 104° |
| 2026-05-08 19:37 | 34.06958 | 35.50260 | 3991 ft | 256 kts | 104° |
| 2026-05-08 19:37 | 34.06486 | 35.52242 | 3980 ft | 236 kts | 109° |
| 2026-05-08 19:38 | 34.05622 | 35.53833 | 3879 ft | 225 kts | 139° |